createdAt,value
2018-08-17T00:00:41.769Z,48.80
2018-08-17T00:03:11.017Z,48.90
2018-08-17T00:05:39.903Z,48.90
2018-08-17T00:08:08.496Z,49.10
2018-08-17T00:10:37.875Z,49.20
2018-08-17T00:13:07.426Z,49.10
2018-08-17T00:15:36.271Z,49.20
2018-08-17T00:18:05.141Z,49.20
2018-08-17T00:20:34.769Z,49.40
2018-08-17T00:23:03.764Z,49.40
2018-08-17T00:25:32.533Z,49.50
2018-08-17T00:28:01.256Z,49.60
2018-08-17T00:30:30.512Z,49.60
2018-08-17T00:32:59.244Z,49.70
2018-08-17T00:35:27.905Z,49.80
2018-08-17T00:37:56.661Z,49.80
2018-08-17T00:40:25.738Z,49.90
2018-08-17T00:42:55.767Z,50.10
2018-08-17T00:45:25.835Z,50.00
2018-08-17T00:47:55.017Z,50.20
2018-08-17T00:50:23.658Z,51.00
2018-08-17T00:52:52.381Z,50.50
2018-08-17T00:55:21.135Z,50.50
2018-08-17T00:57:49.807Z,50.60
2018-08-17T01:00:18.731Z,50.60
2018-08-17T01:02:47.895Z,50.80
2018-08-17T01:05:16.444Z,51.00
2018-08-17T01:07:45.151Z,51.10
2018-08-17T01:10:13.946Z,51.20
2018-08-17T01:12:42.717Z,51.40
2018-08-17T01:15:11.372Z,52.30
2018-08-17T01:17:41.040Z,51.70
2018-08-17T01:20:11.784Z,51.80
2018-08-17T01:22:41.260Z,51.90
2018-08-17T01:25:10.031Z,52.00
2018-08-17T01:27:39.500Z,52.00
2018-08-17T01:30:09.085Z,51.90
2018-08-17T01:32:37.897Z,52.20
2018-08-17T01:35:07.165Z,52.20
2018-08-17T01:37:36.576Z,52.30
2018-08-17T01:40:06.028Z,52.40
2018-08-17T01:42:35.105Z,52.50
2018-08-17T01:45:04.452Z,52.50
2018-08-17T01:47:33.146Z,52.70
2018-08-17T01:50:02.247Z,52.80
2018-08-17T01:52:31.491Z,52.70
2018-08-17T01:55:00.387Z,53.00
2018-08-17T01:57:29.312Z,53.10
2018-08-17T01:59:58.177Z,53.20
2018-08-17T02:02:26.892Z,53.30
2018-08-17T02:04:55.480Z,53.50
2018-08-17T02:07:24.042Z,54.30
2018-08-17T02:09:53.158Z,53.70
2018-08-17T02:12:21.838Z,53.70
2018-08-17T02:14:50.940Z,53.70
2018-08-17T02:17:20.043Z,53.80
2018-08-17T02:19:49.085Z,53.80
2018-08-17T02:22:17.726Z,54.00
2018-08-17T02:24:47.331Z,54.10
2018-08-17T02:27:16.040Z,54.20
2018-08-17T02:29:45.015Z,54.40
2018-08-17T02:32:13.685Z,54.60
2018-08-17T02:34:42.333Z,54.70
2018-08-17T02:37:10.949Z,55.00
2018-08-17T02:39:39.810Z,55.20
2018-08-17T02:42:08.723Z,55.30
2018-08-17T02:44:38.223Z,55.50
2018-08-17T02:47:06.985Z,55.60
2018-08-17T02:49:35.684Z,55.70
2018-08-17T02:52:05.467Z,55.80
2018-08-17T02:54:34.208Z,56.00
2018-08-17T02:57:03.444Z,56.00
2018-08-17T02:59:32.077Z,56.00
2018-08-17T03:02:00.662Z,56.10
2018-08-17T03:04:29.245Z,56.30
2018-08-17T03:06:58.337Z,56.30
2018-08-17T03:09:27.042Z,56.40
2018-08-17T03:11:55.676Z,56.40
2018-08-17T03:14:24.266Z,56.40
2018-08-17T03:16:53.306Z,56.60
2018-08-17T03:19:22.553Z,56.70
2018-08-17T03:21:51.146Z,56.80
2018-08-17T03:24:20.241Z,57.00
2018-08-17T03:26:49.007Z,57.00
2018-08-17T03:29:17.583Z,57.00
2018-08-17T03:31:46.672Z,57.10
2018-08-17T03:34:15.328Z,57.30
2018-08-17T03:36:44.259Z,57.40
2018-08-17T03:39:13.474Z,57.40
2018-08-17T03:41:42.229Z,57.60
2018-08-17T03:44:11.332Z,57.80
2018-08-17T03:46:40.642Z,57.80
2018-08-17T03:49:09.592Z,58.40
2018-08-17T03:51:38.772Z,58.10
2018-08-17T03:54:08.202Z,58.20
2018-08-17T03:56:36.970Z,58.20
2018-08-17T03:59:07.099Z,58.30
2018-08-17T04:01:35.925Z,58.40
2018-08-17T04:04:05.188Z,58.60
2018-08-17T04:06:34.414Z,58.80
2018-08-17T04:09:03.227Z,58.90
2018-08-17T04:11:32.398Z,58.80
2018-08-17T04:14:01.106Z,59.00
2018-08-17T04:16:30.068Z,59.00
2018-08-17T04:18:59.783Z,59.00
2018-08-17T04:21:31.864Z,59.10
2018-08-17T04:24:01.063Z,59.10
2018-08-17T04:26:31.426Z,59.10
2018-08-17T04:29:00.215Z,59.10
2018-08-17T04:31:29.670Z,59.20
2018-08-17T04:34:00.135Z,59.20
2018-08-17T04:36:29.586Z,59.20
2018-08-17T04:38:58.176Z,59.10
2018-08-17T04:41:29.793Z,59.20
2018-08-17T04:43:59.310Z,59.20
2018-08-17T04:46:38.559Z,59.10
2018-08-17T04:49:09.339Z,59.10
2018-08-17T04:51:41.420Z,59.10
2018-08-17T04:54:12.312Z,59.30
2018-08-17T04:56:44.297Z,59.30
2018-08-17T04:59:15.658Z,59.40
2018-08-17T05:01:47.465Z,59.30
2018-08-17T05:04:17.702Z,59.50
2018-08-17T05:06:47.227Z,59.60
2018-08-17T05:09:16.994Z,59.60
2018-08-17T05:11:46.460Z,59.60
2018-08-17T05:14:15.672Z,59.70
2018-08-17T05:16:45.047Z,60.70
2018-08-17T05:19:13.736Z,59.70
2018-08-17T05:21:42.689Z,59.70
2018-08-17T05:24:11.355Z,59.70
2018-08-17T05:26:40.219Z,59.70
2018-08-17T05:29:09.262Z,59.80
2018-08-17T05:31:38.309Z,59.90
2018-08-17T05:34:07.228Z,59.90
2018-08-17T05:36:35.873Z,59.90
2018-08-17T05:39:05.487Z,60.00
2018-08-17T05:41:34.205Z,60.00
2018-08-17T05:44:02.731Z,60.20
2018-08-17T05:46:31.706Z,60.30
2018-08-17T05:49:00.789Z,60.30
2018-08-17T05:51:29.447Z,60.00
2018-08-17T05:53:58.183Z,60.00
2018-08-17T05:56:26.722Z,60.00
2018-08-17T05:58:55.293Z,60.00
2018-08-17T06:01:23.883Z,60.00
2018-08-17T06:03:52.784Z,60.10
2018-08-17T06:06:21.406Z,60.10
2018-08-17T06:08:50.008Z,59.90
2018-08-17T06:11:18.957Z,59.90
2018-08-17T06:13:47.464Z,59.80
2018-08-17T06:16:16.087Z,59.70
2018-08-17T06:18:44.681Z,59.70
2018-08-17T06:21:13.227Z,59.70
2018-08-17T06:23:41.845Z,59.70
2018-08-17T06:26:10.451Z,59.60
2018-08-17T06:28:39.725Z,60.20
2018-08-17T06:31:08.381Z,59.60
2018-08-17T06:33:38.492Z,59.30
2018-08-17T06:36:07.195Z,59.40
2018-08-17T06:38:36.389Z,59.20
2018-08-17T06:41:05.745Z,59.30
2018-08-17T06:43:35.039Z,59.70
2018-08-17T06:46:03.700Z,59.10
2018-08-17T06:48:32.603Z,59.10
2018-08-17T06:51:01.346Z,59.00
2018-08-17T06:53:29.793Z,59.30
2018-08-17T06:55:58.779Z,59.10
2018-08-17T06:58:27.321Z,59.00
2018-08-17T07:00:55.877Z,58.80
2018-08-17T07:03:24.418Z,58.70
2018-08-17T07:05:53.095Z,58.50
2018-08-17T07:08:21.651Z,58.40
2018-08-17T07:10:50.272Z,58.40
2018-08-17T07:13:19.246Z,58.20
2018-08-17T07:15:47.801Z,58.00
2018-08-17T07:18:17.583Z,58.10
2018-08-17T07:20:46.176Z,57.90
2018-08-17T07:23:14.976Z,57.70
2018-08-17T07:25:43.616Z,57.50
2018-08-17T07:28:13.093Z,57.40
2018-08-17T07:30:42.204Z,57.50
2018-08-17T07:33:11.895Z,57.10
2018-08-17T07:35:41.530Z,57.00
2018-08-17T07:38:10.238Z,56.80
2018-08-17T07:40:39.783Z,56.80
2018-08-17T07:43:08.789Z,56.60
2018-08-17T07:45:37.980Z,56.70
2018-08-17T07:48:07.137Z,56.30
2018-08-17T07:50:36.158Z,56.10
2018-08-17T07:53:04.842Z,56.30
2018-08-17T07:55:33.379Z,55.70
2018-08-17T07:58:02.136Z,55.40
2018-08-17T08:00:31.664Z,55.10
2018-08-17T08:03:00.297Z,55.10
2018-08-17T08:05:29.430Z,54.90
2018-08-17T08:07:58.000Z,54.80
2018-08-17T08:10:26.907Z,54.70
2018-08-17T08:12:56.104Z,54.40
2018-08-17T08:15:24.733Z,54.40
2018-08-17T08:17:53.394Z,54.20
2018-08-17T08:20:29.508Z,54.20
2018-08-17T08:23:09.331Z,54.00
2018-08-17T08:25:38.281Z,53.90
2018-08-17T08:28:06.977Z,53.80
2018-08-17T08:30:36.134Z,54.60
2018-08-17T08:33:04.915Z,54.10
2018-08-17T08:35:33.901Z,53.70
2018-08-17T08:38:03.082Z,53.50
2018-08-17T08:40:31.846Z,53.40
2018-08-17T08:43:00.497Z,53.30
2018-08-17T08:45:29.202Z,53.00
2018-08-17T08:47:57.781Z,52.30
2018-08-17T08:50:26.840Z,52.60
2018-08-17T08:52:55.548Z,52.50
2018-08-17T08:55:24.194Z,52.70
2018-08-17T08:57:52.856Z,52.10
2018-08-17T09:00:22.175Z,51.90
2018-08-17T09:02:50.994Z,52.10
2018-08-17T09:05:19.683Z,51.90
2018-08-17T09:07:48.444Z,51.50
2018-08-17T09:10:17.043Z,51.70
2018-08-17T09:12:45.700Z,51.30
2018-08-17T09:15:14.307Z,51.20
2018-08-17T09:17:43.583Z,50.60
2018-08-17T09:20:14.605Z,50.90
2018-08-17T09:22:43.142Z,51.10
2018-08-17T09:25:12.150Z,50.50
2018-08-17T09:27:42.669Z,50.40
2018-08-17T09:30:13.959Z,50.20
2018-08-17T09:32:42.588Z,49.80
2018-08-17T09:35:12.583Z,50.00
2018-08-17T09:37:41.267Z,50.00
2018-08-17T09:40:10.898Z,49.60
2018-08-17T09:42:39.735Z,50.00
2018-08-17T09:45:10.593Z,49.80
2018-08-17T09:47:39.347Z,50.00
2018-08-17T09:50:13.077Z,50.10
2018-08-17T09:52:42.182Z,49.70
2018-08-17T09:55:11.266Z,49.10
2018-08-17T09:57:40.696Z,49.40
2018-08-17T10:00:10.967Z,49.50
2018-08-17T10:02:45.061Z,49.10
2018-08-17T10:05:19.206Z,49.20
2018-08-17T10:07:53.750Z,49.30
2018-08-17T10:10:23.964Z,48.70
2018-08-17T10:12:53.426Z,49.40
2018-08-17T10:15:23.962Z,48.40
2018-08-17T10:17:59.371Z,48.00
2018-08-17T10:20:27.940Z,46.90
2018-08-17T10:22:56.573Z,47.00
2018-08-17T10:25:26.104Z,47.30
2018-08-17T10:27:57.913Z,47.30
2018-08-17T10:30:26.822Z,47.10
2018-08-17T10:32:59.776Z,46.90
2018-08-17T10:35:31.824Z,46.60
2018-08-17T10:38:02.314Z,46.90
2018-08-17T10:40:32.284Z,46.80
2018-08-17T10:43:03.484Z,47.20
2018-08-17T10:45:32.490Z,47.20
2018-08-17T10:48:01.176Z,47.00
2018-08-17T10:50:31.806Z,46.40
2018-08-17T10:53:02.117Z,46.70
2018-08-17T10:55:37.469Z,46.70
2018-08-17T10:58:06.703Z,47.30
2018-08-17T11:00:35.448Z,47.00
2018-08-17T11:03:04.273Z,46.80
2018-08-17T11:05:33.021Z,46.60
2018-08-17T11:08:02.326Z,46.70
2018-08-17T11:10:31.026Z,46.10
2018-08-17T11:12:59.552Z,45.90
2018-08-17T11:15:28.300Z,46.30
2018-08-17T11:17:56.949Z,45.40
2018-08-17T11:20:25.814Z,45.40
2018-08-17T11:22:54.759Z,45.30
2018-08-17T11:25:23.346Z,44.50
2018-08-17T11:27:52.494Z,44.30
2018-08-17T11:30:21.074Z,44.60
2018-08-17T11:32:49.734Z,44.70
2018-08-17T11:35:18.364Z,44.00
2018-08-17T11:37:46.989Z,43.10
2018-08-17T11:40:15.632Z,43.30
2018-08-17T11:42:47.442Z,43.40
2018-08-17T11:45:26.618Z,43.40
2018-08-17T11:47:56.339Z,43.40
2018-08-17T11:50:26.422Z,42.90
2018-08-17T11:52:56.356Z,43.00
2018-08-17T11:55:26.232Z,43.20
2018-08-17T11:57:55.508Z,42.60
2018-08-17T12:00:24.724Z,42.70
2018-08-17T12:02:53.299Z,41.80
2018-08-17T12:05:21.880Z,42.60
2018-08-17T12:07:50.414Z,42.50
2018-08-17T12:10:19.000Z,43.20
2018-08-17T12:12:47.738Z,43.00
2018-08-17T12:15:16.990Z,42.20
2018-08-17T12:17:45.640Z,42.00
2018-08-17T12:20:14.288Z,41.60
2018-08-17T12:22:42.884Z,41.20
2018-08-17T12:25:12.015Z,41.40
2018-08-17T12:27:46.751Z,40.70
2018-08-17T12:30:16.023Z,40.70
2018-08-17T12:32:44.608Z,40.10
2018-08-17T12:35:13.317Z,40.60
2018-08-17T12:37:42.644Z,40.10
2018-08-17T12:40:11.643Z,40.20
2018-08-17T12:42:40.675Z,40.40
2018-08-17T12:45:14.819Z,39.70
2018-08-17T12:47:43.524Z,39.90
2018-08-17T12:50:12.238Z,39.70
2018-08-17T12:52:41.532Z,39.40
2018-08-17T12:55:10.650Z,39.00
2018-08-17T12:57:41.641Z,39.40
2018-08-17T13:00:11.794Z,39.50
2018-08-17T13:02:41.074Z,39.50
2018-08-17T13:05:09.909Z,39.90
2018-08-17T13:07:38.994Z,39.40
2018-08-17T13:10:07.711Z,39.30
2018-08-17T13:12:37.325Z,39.40
2018-08-17T13:15:06.012Z,38.90
2018-08-17T13:17:40.799Z,39.10
2018-08-17T13:20:09.760Z,40.00
2018-08-17T13:24:05.920Z,39.60
2018-08-17T13:26:35.251Z,38.90
2018-08-17T13:29:04.472Z,39.60
2018-08-17T13:31:34.136Z,38.90
2018-08-17T13:34:03.389Z,38.40
2018-08-17T13:36:34.284Z,38.40
2018-08-17T13:39:05.105Z,38.00
2018-08-17T13:41:35.864Z,38.40
2018-08-17T13:44:07.854Z,38.30
2018-08-17T13:46:37.044Z,38.60
2018-08-17T13:49:06.139Z,38.50
2018-08-17T13:51:35.543Z,38.60
2018-08-17T13:54:04.805Z,39.30
2018-08-17T13:56:34.275Z,38.80
2018-08-17T13:59:03.039Z,39.90
2018-08-17T14:01:32.655Z,39.30
2018-08-17T14:04:01.992Z,39.50
2018-08-17T14:06:31.831Z,40.00
2018-08-17T14:09:00.446Z,39.80
2018-08-17T14:11:29.040Z,39.70
2018-08-17T14:13:58.419Z,40.10
2018-08-17T14:16:27.557Z,40.40
2018-08-17T14:18:56.368Z,41.00
2018-08-17T14:21:24.939Z,41.20
2018-08-17T14:23:53.512Z,40.90
2018-08-17T14:26:22.092Z,41.40
2018-08-17T14:28:51.177Z,41.40
2018-08-17T14:31:19.794Z,41.20
2018-08-17T14:33:48.453Z,40.80
2018-08-17T14:36:17.031Z,41.10
2018-08-17T14:38:45.571Z,40.70
2018-08-17T14:41:14.908Z,40.80
2018-08-17T14:43:48.877Z,41.60
2018-08-17T14:46:20.340Z,41.20
2018-08-17T14:49:55.615Z,41.50
2018-08-17T14:52:24.672Z,41.20
2018-08-17T14:54:53.334Z,41.40
2018-08-17T14:57:21.823Z,41.90
2018-08-17T14:59:51.033Z,41.80
2018-08-17T15:02:19.847Z,42.30
2018-08-17T15:04:48.768Z,42.20
2018-08-17T15:07:17.385Z,42.10
2018-08-17T15:09:46.227Z,41.80
2018-08-17T15:12:15.049Z,42.10
2018-08-17T15:14:43.754Z,42.40
2018-08-17T15:17:13.151Z,42.40
2018-08-17T15:19:48.401Z,42.70
2018-08-17T15:22:17.243Z,43.20
2018-08-17T15:24:46.206Z,43.80
2018-08-17T15:27:15.421Z,44.00
2018-08-17T15:29:45.091Z,44.30
2018-08-17T15:32:17.038Z,44.20
2018-08-17T15:34:47.344Z,43.70
2018-08-17T15:37:21.346Z,44.10
2018-08-17T15:39:51.053Z,44.50
2018-08-17T15:42:19.809Z,44.50
2018-08-17T15:44:48.428Z,44.60
2018-08-17T15:47:17.146Z,44.60
2018-08-17T15:50:23.699Z,44.70
2018-08-17T15:52:54.723Z,45.10
2018-08-17T15:55:28.536Z,45.70
2018-08-17T15:57:58.675Z,45.90
2018-08-17T16:00:30.030Z,46.00
2018-08-17T16:02:58.925Z,46.10
2018-08-17T16:05:27.918Z,45.90
2018-08-17T16:07:56.811Z,45.80
2018-08-17T16:10:26.084Z,45.40
2018-08-17T16:12:54.813Z,46.20
2018-08-17T16:15:25.910Z,45.80
2018-08-17T16:17:55.165Z,46.10
2018-08-17T16:20:24.310Z,46.10
2018-08-17T16:22:53.342Z,45.90
2018-08-17T16:25:21.938Z,45.70
2018-08-17T16:27:51.119Z,46.00
2018-08-17T16:30:21.957Z,45.80
2018-08-17T16:32:53.098Z,45.80
2018-08-17T16:35:22.442Z,46.10
2018-08-17T16:37:54.470Z,46.20
2018-08-17T16:40:23.256Z,46.50
2018-08-17T16:42:52.617Z,46.80
2018-08-17T16:45:21.855Z,46.90
2018-08-17T16:47:50.802Z,46.70
2018-08-17T16:50:19.472Z,47.40
2018-08-17T16:52:48.222Z,47.50
2018-08-17T16:55:19.447Z,47.90
2018-08-17T16:57:51.785Z,48.20
2018-08-17T17:00:20.545Z,48.40
2018-08-17T17:02:52.329Z,48.50
2018-08-17T17:05:20.974Z,48.50
2018-08-17T17:07:50.341Z,48.40
2018-08-17T17:10:19.024Z,48.40
2018-08-17T17:12:47.861Z,48.50
2018-08-17T17:15:20.600Z,48.50
2018-08-17T17:17:56.977Z,48.90
2018-08-17T17:20:26.423Z,49.00
2018-08-17T17:22:55.952Z,49.10
2018-08-17T17:25:24.837Z,49.20
2018-08-17T17:27:53.537Z,49.20
2018-08-17T17:30:22.216Z,49.20
2018-08-17T17:32:50.810Z,49.20
2018-08-17T17:35:20.364Z,49.40
2018-08-17T17:37:49.030Z,49.10
2018-08-17T17:40:17.637Z,48.90
2018-08-17T17:42:47.839Z,49.00
2018-08-17T17:45:16.912Z,48.90
2018-08-17T17:47:45.560Z,49.10
2018-08-17T17:50:14.263Z,49.10
2018-08-17T17:52:43.112Z,49.20
2018-08-17T17:55:12.164Z,49.40
2018-08-17T17:57:41.139Z,49.60
2018-08-17T18:00:10.133Z,50.10
2018-08-17T18:02:39.512Z,50.40
2018-08-17T18:05:08.784Z,50.70
2018-08-17T18:07:44.781Z,50.80
2018-08-17T18:10:13.799Z,50.90
2018-08-17T18:12:42.551Z,50.90
2018-08-17T18:15:11.871Z,50.90
2018-08-17T18:17:41.662Z,51.00
2018-08-17T18:20:11.927Z,51.20
2018-08-17T18:22:41.364Z,51.30
2018-08-17T18:25:16.536Z,51.50
2018-08-17T18:27:45.445Z,51.70
2018-08-17T18:30:14.527Z,51.80
2018-08-17T18:32:43.764Z,51.80
2018-08-17T18:35:12.465Z,52.10
2018-08-17T18:37:42.035Z,52.20
2018-08-17T18:40:12.605Z,52.30
2018-08-17T18:42:41.661Z,52.70
2018-08-17T18:45:10.945Z,52.80
2018-08-17T18:47:39.846Z,52.90
2018-08-17T18:50:08.810Z,53.00
2018-08-17T18:52:37.880Z,53.10
2018-08-17T18:55:06.896Z,53.10
2018-08-17T18:57:36.565Z,53.40
2018-08-17T19:00:08.427Z,53.50
2018-08-17T19:02:37.205Z,53.70
2018-08-17T19:05:06.003Z,53.80
2018-08-17T19:07:34.556Z,53.80
2018-08-17T19:10:03.271Z,53.70
2018-08-17T19:12:31.842Z,53.70
2018-08-17T19:15:00.469Z,53.80
2018-08-17T19:17:32.435Z,53.90
2018-08-17T19:20:01.029Z,54.10
2018-08-17T19:22:35.876Z,54.20
2018-08-17T19:25:05.913Z,54.30
2018-08-17T19:27:34.961Z,54.40
2018-08-17T19:30:05.975Z,54.60
2018-08-17T19:32:34.619Z,54.20
2018-08-17T19:35:03.286Z,55.30
2018-08-17T19:37:32.286Z,54.80
2018-08-17T19:40:00.807Z,54.80
2018-08-17T19:42:29.668Z,54.70
2018-08-17T19:44:58.343Z,54.70
2018-08-17T19:47:26.942Z,54.80
2018-08-17T19:49:55.442Z,54.70
2018-08-17T19:52:24.062Z,54.80
2018-08-17T19:54:52.743Z,54.70
2018-08-17T19:57:21.410Z,54.90
2018-08-17T19:59:49.932Z,54.80
2018-08-17T20:02:18.617Z,55.00
2018-08-17T20:04:47.583Z,55.00
2018-08-17T20:07:16.142Z,55.00
2018-08-17T20:09:44.831Z,55.00
2018-08-17T20:12:13.876Z,55.00
2018-08-17T20:14:42.455Z,55.10
2018-08-17T20:17:11.047Z,55.10
2018-08-17T20:19:45.429Z,55.10
2018-08-17T20:22:19.366Z,55.20
2018-08-17T20:24:48.307Z,55.10
2018-08-17T20:27:17.743Z,55.20
2018-08-17T20:29:46.758Z,55.30
2018-08-17T20:32:15.370Z,55.40
2018-08-17T20:34:47.132Z,55.50
2018-08-17T20:37:16.632Z,55.00
2018-08-17T20:39:46.470Z,55.50
2018-08-17T20:42:15.076Z,55.50
2018-08-17T20:44:43.655Z,55.30
2018-08-17T20:47:12.731Z,55.40
2018-08-17T20:49:41.736Z,55.00
2018-08-17T20:52:10.331Z,55.00
2018-08-17T20:54:39.111Z,54.90
2018-08-17T20:57:07.833Z,54.80
2018-08-17T20:59:36.872Z,54.70
2018-08-17T21:02:05.606Z,54.60
2018-08-17T21:04:34.689Z,54.50
2018-08-17T21:07:03.792Z,54.50
2018-08-17T21:09:32.781Z,54.40
2018-08-17T21:12:01.327Z,54.30
2018-08-17T21:14:29.893Z,54.30
2018-08-17T21:16:58.564Z,54.10
2018-08-17T21:19:32.387Z,54.20
2018-08-17T21:22:01.950Z,54.00
2018-08-17T21:24:30.479Z,54.10
2018-08-17T21:26:59.052Z,54.40
2018-08-17T21:29:27.814Z,53.80
2018-08-17T21:31:56.655Z,54.00
2018-08-17T21:34:25.324Z,53.90
2018-08-17T21:36:54.808Z,53.90
2018-08-17T21:39:23.386Z,54.00
2018-08-17T21:41:51.971Z,54.00
2018-08-17T21:44:21.547Z,53.80
2018-08-17T21:47:08.068Z,53.80
2018-08-17T21:49:36.962Z,53.70
2018-08-17T21:52:10.191Z,53.70
2018-08-17T21:54:39.163Z,53.80
2018-08-17T21:57:07.731Z,53.80
2018-08-17T21:59:41.808Z,53.70
2018-08-17T22:02:11.373Z,53.70
2018-08-17T22:04:40.460Z,53.50
2018-08-17T22:07:13.986Z,53.60
2018-08-17T22:09:43.641Z,53.70
2018-08-17T22:12:12.951Z,53.80
2018-08-17T22:14:41.624Z,53.80
2018-08-17T22:17:21.552Z,53.80
2018-08-17T22:19:50.136Z,53.80
2018-08-17T22:22:18.767Z,53.80
2018-08-17T22:24:53.399Z,53.80
2018-08-17T22:27:22.568Z,53.90
2018-08-17T22:29:52.489Z,53.80
2018-08-17T22:32:21.493Z,53.60
2018-08-17T22:34:50.543Z,53.70
2018-08-17T22:37:19.435Z,53.50
2018-08-17T22:39:49.185Z,53.90
2018-08-17T22:42:19.359Z,53.60
2018-08-17T22:44:48.401Z,53.70
2018-08-17T22:47:21.790Z,53.50
2018-08-17T22:49:51.122Z,53.70
2018-08-17T22:52:19.798Z,53.50
2018-08-17T22:54:53.493Z,53.60
2018-08-17T22:57:22.097Z,53.80
2018-08-17T23:00:09.253Z,53.90
2018-08-17T23:02:39.462Z,53.80
2018-08-17T23:05:10.140Z,53.80
2018-08-17T23:07:39.385Z,53.90
2018-08-17T23:10:11.356Z,53.80
2018-08-17T23:12:40.955Z,54.00
2018-08-17T23:15:10.568Z,54.10
2018-08-17T23:17:41.181Z,54.20
2018-08-17T23:20:10.041Z,54.20
2018-08-17T23:22:46.842Z,54.20
2018-08-17T23:25:15.632Z,53.70
2018-08-17T23:27:44.555Z,54.30
2018-08-17T23:30:13.427Z,54.50
2018-08-17T23:32:42.102Z,54.40
2018-08-17T23:35:10.724Z,54.10
2018-08-17T23:37:39.831Z,54.30
2018-08-17T23:40:09.336Z,54.10
2018-08-17T23:42:38.058Z,54.10
2018-08-17T23:45:08.314Z,53.90
2018-08-17T23:47:36.917Z,53.90
2018-08-17T23:50:06.519Z,53.80
2018-08-17T23:52:35.491Z,53.60
2018-08-17T23:55:04.476Z,53.60
2018-08-17T23:57:33.079Z,53.60
